Time;durP1;ratioP1;P1;durP2;ratioP2;P2;SDS_P1;SDS_P2;PMS_P1;PMS_P2;Temp;Humidity;BMP_temperature;BMP_pressure;BME280_temperature;BME280_humidity;BME280_pressure;Samples;Min_cycle;Max_cycle;Signal;HPM_P1;HPM_P2
2023/12/28 00:02:19;;;;;;;48.58;46.78;;;;;;;;;;5112129;28;20047;-70
2023/12/28 00:04:45;;;;;;;40.22;38.63;;;;;;;;;;5110572;27;20044;-70
2023/12/28 00:07:12;;;;;;;47.85;45.80;;;;;;;;;;5112352;28;20047;-69
2023/12/28 00:09:38;;;;;;;51.53;49.70;;;;;;;;;;5112375;28;20055;-70
2023/12/28 00:12:06;;;;;;;45.00;43.40;;;;;;;;;;5112239;28;20105;-69
2023/12/28 00:14:32;;;;;;;49.42;47.67;;;;;;;;;;5112088;28;20051;-70
2023/12/28 00:16:58;;;;;;;57.20;54.78;;;;;;;;;;5112188;28;20509;-71
2023/12/28 00:19:25;;;;;;;48.28;46.38;;;;;;;;;;5111764;28;20059;-70
2023/12/28 00:21:51;;;;;;;48.80;46.90;;;;;;;;;;5110914;28;20056;-70
2023/12/28 00:24:20;;;;;;;50.35;48.22;;;;;;;;;;5112026;28;20047;-70
2023/12/28 00:26:47;;;;;;;46.20;44.47;;;;;;;;;;5111925;28;20485;-70
2023/12/28 00:29:15;;;;;;;57.40;55.38;;;;;;;;;;5112155;28;20051;-70
2023/12/28 00:31:41;;;;;;;52.28;50.40;;;;;;;;;;5112059;28;20112;-72
2023/12/28 00:34:08;;;;;;;51.42;49.58;;;;;;;;;;5111956;28;20097;-71
2023/12/28 00:36:34;;;;;;;46.15;44.42;;;;;;;;;;5111980;28;20669;-71
2023/12/28 00:39:00;;;;;;;30.90;29.73;;;;;;;;;;5095238;28;20696;-71
2023/12/28 00:41:27;;;;;;;46.33;44.55;;;;;;;;;;5105331;28;20044;-71
2023/12/28 00:43:53;;;;;;;50.00;48.28;;;;;;;;;;5114574;28;20047;-71
2023/12/28 00:46:21;;;;;;;46.30;44.58;;;;;;;;;;5116190;28;20059;-72
2023/12/28 00:48:48;;;;;;;48.00;46.30;;;;;;;;;;5116131;28;20104;-71
2023/12/28 00:51:14;;;;;;;51.35;49.55;;;;;;;;;;5116025;28;20047;-72
2023/12/28 00:53:41;;;;;;;45.45;43.63;;;;;;;;;;5114596;28;20055;-73
2023/12/28 00:56:07;;;;;;;54.05;52.20;;;;;;;;;;5115655;28;20390;-72
2023/12/28 00:58:34;;;;;;;46.35;44.60;;;;;;;;;;5110338;28;20040;-72
2023/12/28 01:01:00;;;;;;;49.72;47.85;;;;;;;;;;5099675;28;20101;-72
2023/12/28 01:03:28;;;;;;;45.70;43.95;;;;;;;;;;5115628;28;20051;-72
2023/12/28 01:05:55;;;;;;;54.90;52.85;;;;;;;;;;5115649;28;20493;-72
2023/12/28 01:08:21;;;;;;;30.40;29.17;;;;;;;;;;5115657;28;20462;-72
2023/12/28 01:10:47;;;;;;;45.47;43.88;;;;;;;;;;5114440;28;20093;-72
2023/12/28 01:13:14;;;;;;;49.50;47.30;;;;;;;;;;5115402;28;20089;-72
2023/12/28 01:15:41;;;;;;;49.45;47.53;;;;;;;;;;5115133;28;20043;-71
2023/12/28 01:18:07;;;;;;;48.25;46.35;;;;;;;;;;5115569;28;20039;-72
2023/12/28 01:20:35;;;;;;;38.67;37.17;;;;;;;;;;5115416;28;20069;-71
2023/12/28 01:23:02;;;;;;;42.42;40.85;;;;;;;;;;5114956;28;20047;-71
2023/12/28 01:25:28;;;;;;;44.22;42.13;;;;;;;;;;5115416;28;20202;-72
2023/12/28 01:27:55;;;;;;;41.42;39.88;;;;;;;;;;5095715;28;20060;-70
2023/12/28 01:30:21;;;;;;;27.75;26.63;;;;;;;;;;5094825;28;20460;-71
2023/12/28 01:32:47;;;;;;;47.63;45.83;;;;;;;;;;5094859;28;20052;-69
2023/12/28 01:35:14;;;;;;;51.08;48.85;;;;;;;;;;5102215;28;20039;-69
2023/12/28 01:37:42;;;;;;;48.33;46.65;;;;;;;;;;5115187;28;20078;-70
2023/12/28 01:40:09;;;;;;;51.28;49.05;;;;;;;;;;5115231;28;20096;-69
2023/12/28 01:42:35;;;;;;;43.08;41.50;;;;;;;;;;5113323;28;20097;-70
2023/12/28 01:45:02;;;;;;;49.45;47.42;;;;;;;;;;5114929;28;20051;-70
2023/12/28 01:47:30;;;;;;;49.72;47.75;;;;;;;;;;5114989;28;20051;-69
2023/12/28 01:49:56;;;;;;;51.92;50.05;;;;;;;;;;5114597;28;20048;-70
2023/12/28 01:52:23;;;;;;;50.45;48.63;;;;;;;;;;5114890;28;20116;-69
2023/12/28 01:54:51;;;;;;;41.70;40.00;;;;;;;;;;5114639;28;20106;-71
2023/12/28 01:57:18;;;;;;;48.58;46.80;;;;;;;;;;5111366;28;20156;-70
2023/12/28 01:59:44;;;;;;;47.08;45.25;;;;;;;;;;5094162;28;20489;-70
2023/12/28 02:02:11;;;;;;;45.53;43.83;;;;;;;;;;5113367;28;20120;-70
2023/12/28 02:04:38;;;;;;;47.38;45.70;;;;;;;;;;5114245;28;20040;-69
2023/12/28 02:07:05;;;;;;;53.97;52.05;;;;;;;;;;5114752;28;20055;-70
2023/12/28 02:09:31;;;;;;;47.70;46.00;;;;;;;;;;5114441;28;20052;-69
2023/12/28 02:11:59;;;;;;;47.35;45.72;;;;;;;;;;5114463;28;20044;-69
2023/12/28 02:14:26;;;;;;;47.70;45.90;;;;;;;;;;5114322;28;20096;-70
2023/12/28 02:16:55;;;;;;;51.38;49.47;;;;;;;;;;5113163;28;20092;-69
2023/12/28 02:19:27;;;;;;;42.50;40.88;;;;;;;;;;5114165;28;20105;-70
2023/12/28 02:21:55;;;;;;;41.25;39.80;;;;;;;;;;5114347;28;20489;-70
2023/12/28 02:24:21;;;;;;;52.17;50.35;;;;;;;;;;5114221;28;20109;-70
2023/12/28 02:26:49;;;;;;;48.45;46.65;;;;;;;;;;5114016;28;20051;-71
2023/12/28 02:29:16;;;;;;;44.58;42.92;;;;;;;;;;5114210;28;20047;-70
2023/12/28 02:31:46;;;;;;;38.30;36.70;;;;;;;;;;5114238;28;20094;-70
2023/12/28 02:34:17;;;;;;;54.45;52.58;;;;;;;;;;5112736;28;20048;-70
2023/12/28 02:36:45;;;;;;;48.65;46.95;;;;;;;;;;5113868;28;20048;-70
2023/12/28 02:39:12;;;;;;;44.15;41.97;;;;;;;;;;5113862;28;20168;-70
2023/12/28 02:41:38;;;;;;;46.28;44.47;;;;;;;;;;5113835;28;20044;-71
2023/12/28 02:44:06;;;;;;;44.45;42.90;;;;;;;;;;5113946;28;20055;-70
2023/12/28 02:46:32;;;;;;;43.92;42.25;;;;;;;;;;5112382;28;20105;-69
2023/12/28 02:48:59;;;;;;;36.35;34.85;;;;;;;;;;5113535;28;20399;-69
2023/12/28 02:51:25;;;;;;;47.88;46.15;;;;;;;;;;5113825;28;20044;-71
2023/12/28 02:53:52;;;;;;;47.00;45.30;;;;;;;;;;5113550;28;20104;-72
2023/12/28 02:56:18;;;;;;;43.03;41.47;;;;;;;;;;5113237;28;20498;-71
2023/12/28 02:58:45;;;;;;;57.58;55.55;;;;;;;;;;5113312;28;20048;-72
2023/12/28 03:01:13;;;;;;;43.78;42.20;;;;;;;;;;5113419;28;20112;-71
2023/12/28 03:03:39;;;;;;;57.60;55.60;;;;;;;;;;5112134;28;20056;-71
2023/12/28 03:06:06;;;;;;;58.67;56.65;;;;;;;;;;5112867;28;20490;-71
2023/12/28 03:08:32;;;;;;;49.22;47.53;;;;;;;;;;5113294;28;20093;-71
2023/12/28 03:10:59;;;;;;;53.00;51.08;;;;;;;;;;5113053;28;20043;-71
2023/12/28 03:13:25;;;;;;;51.28;49.45;;;;;;;;;;5113315;28;20051;-71
2023/12/28 03:15:52;;;;;;;33.28;31.98;;;;;;;;;;5113205;28;20401;-71
2023/12/28 03:18:20;;;;;;;50.92;49.13;;;;;;;;;;5111762;28;20096;-71
2023/12/28 03:20:46;;;;;;;35.08;33.83;;;;;;;;;;5113080;28;20387;-70
2023/12/28 03:23:13;;;;;;;48.75;46.65;;;;;;;;;;5113016;28;20096;-70
2023/12/28 03:25:39;;;;;;;51.75;49.85;;;;;;;;;;5113075;28;20079;-70
2023/12/28 03:28:06;;;;;;;59.20;57.03;;;;;;;;;;5112996;28;20051;-70
2023/12/28 03:30:32;;;;;;;39.90;38.42;;;;;;;;;;5113191;28;20473;-71
2023/12/28 03:32:59;;;;;;;30.88;29.55;;;;;;;;;;5112843;28;20522;-70
2023/12/28 03:35:27;;;;;;;42.55;40.78;;;;;;;;;;5111311;28;20047;-71
2023/12/28 03:37:53;;;;;;;48.22;46.38;;;;;;;;;;5112786;28;20051;-69
2023/12/28 03:40:20;;;;;;;51.88;50.03;;;;;;;;;;5112743;28;20108;-71
2023/12/28 03:42:46;;;;;;;43.00;41.50;;;;;;;;;;5112806;28;20138;-70
2023/12/28 03:45:13;;;;;;;43.33;41.75;;;;;;;;;;5112678;28;20043;-70
2023/12/28 03:47:39;;;;;;;41.80;40.28;;;;;;;;;;5112756;28;20125;-70
2023/12/28 03:50:06;;;;;;;40.33;38.90;;;;;;;;;;5112695;28;20066;-72
2023/12/28 03:52:34;;;;;;;47.47;45.78;;;;;;;;;;5111455;28;20126;-73
2023/12/28 03:55:01;;;;;;;40.15;38.55;;;;;;;;;;5112459;28;20063;-72
2023/12/28 03:57:27;;;;;;;40.67;39.15;;;;;;;;;;5112334;28;20497;-73
2023/12/28 03:59:54;;;;;;;54.75;52.58;;;;;;;;;;5112111;28;20083;-72
2023/12/28 04:02:21;;;;;;;49.38;45.90;;;;;;;;;;5112459;28;20051;-73
2023/12/28 04:04:48;;;;;;;37.55;36.17;;;;;;;;;;5112328;28;20051;-73
2023/12/28 04:07:16;;;;;;;44.97;43.08;;;;;;;;;;5110990;28;20100;-74
2023/12/28 04:09:43;;;;;;;23.20;22.13;;;;;;;;;;5112007;28;20405;-73
2023/12/28 04:12:10;;;;;;;43.00;41.35;;;;;;;;;;5112341;28;20112;-74
2023/12/28 04:14:36;;;;;;;22.05;21.17;;;;;;;;;;5112287;28;20452;-73
2023/12/28 04:17:03;;;;;;;42.08;40.40;;;;;;;;;;5111427;28;20108;-72
2023/12/28 04:19:29;;;;;;;43.28;41.58;;;;;;;;;;5111810;28;20055;-73
2023/12/28 04:21:56;;;;;;;39.67;38.20;;;;;;;;;;5111906;28;20497;-73
2023/12/28 04:24:23;;;;;;;55.25;53.28;;;;;;;;;;5111237;28;20039;-72
2023/12/28 04:26:51;;;;;;;38.92;37.28;;;;;;;;;;5111986;28;20055;-74
2023/12/28 04:29:17;;;;;;;37.80;36.40;;;;;;;;;;5112040;28;20048;-73
2023/12/28 04:31:43;;;;;;;41.25;39.70;;;;;;;;;;5111840;28;20081;-73
2023/12/28 04:34:10;;;;;;;33.42;31.25;;;;;;;;;;5111843;28;20452;-71
2023/12/28 04:36:40;;;;;;;48.05;46.25;;;;;;;;;;5112042;28;20044;-71
2023/12/28 04:39:06;;;;;;;48.95;47.17;;;;;;;;;;5110642;28;20078;-71
2023/12/28 04:41:33;;;;;;;43.65;42.00;;;;;;;;;;5112012;28;20039;-71
2023/12/28 04:44:01;;;;;;;48.45;46.55;;;;;;;;;;5111920;28;20055;-72
2023/12/28 04:46:27;;;;;;;36.58;35.28;;;;;;;;;;5107798;28;20044;-71
2023/12/28 04:48:54;;;;;;;37.55;36.03;;;;;;;;;;5091447;28;20556;-71
2023/12/28 04:51:20;;;;;;;47.80;45.97;;;;;;;;;;5111074;28;20047;-71
2023/12/28 04:53:47;;;;;;;46.13;44.50;;;;;;;;;;5111826;28;20047;-70
2023/12/28 04:56:13;;;;;;;44.53;42.70;;;;;;;;;;5111700;28;20052;-70
2023/12/28 04:58:39;;;;;;;40.45;39.00;;;;;;;;;;5111491;28;20085;-71
2023/12/28 05:01:07;;;;;;;44.47;42.67;;;;;;;;;;5111532;28;20120;-70
2023/12/28 05:03:34;;;;;;;51.83;49.83;;;;;;;;;;5110450;28;20100;-71
2023/12/28 05:06:02;;;;;;;56.72;54.70;;;;;;;;;;5111790;28;20097;-73
2023/12/28 05:08:29;;;;;;;54.90;52.78;;;;;;;;;;5111721;28;20051;-73
2023/12/28 05:10:55;;;;;;;49.05;47.00;;;;;;;;;;5111552;28;20047;-73
2023/12/28 05:13:21;;;;;;;48.67;46.88;;;;;;;;;;5111865;28;20048;-73
2023/12/28 05:15:48;;;;;;;43.75;41.90;;;;;;;;;;5111474;28;20044;-74
2023/12/28 05:18:16;;;;;;;40.00;38.60;;;;;;;;;;5111522;28;20459;-74
2023/12/28 05:20:42;;;;;;;44.40;42.83;;;;;;;;;;5110093;28;20112;-74
2023/12/28 05:23:09;;;;;;;45.45;43.85;;;;;;;;;;5111613;28;20096;-73
2023/12/28 05:25:35;;;;;;;46.75;45.10;;;;;;;;;;5111468;28;20126;-71
2023/12/28 05:28:02;;;;;;;47.72;45.97;;;;;;;;;;5111515;28;20109;-71
2023/12/28 05:30:28;;;;;;;44.13;42.58;;;;;;;;;;5113649;27;20092;-71
2023/12/28 05:32:55;;;;;;;45.70;43.92;;;;;;;;;;5114090;28;20100;-72
2023/12/28 05:35:22;;;;;;;50.58;48.83;;;;;;;;;;5114715;28;20043;-71
2023/12/28 05:37:49;;;;;;;52.58;50.38;;;;;;;;;;5114969;28;20112;-70
2023/12/28 05:40:16;;;;;;;47.97;46.25;;;;;;;;;;5115031;28;20126;-71
2023/12/28 05:42:42;;;;;;;43.15;40.83;;;;;;;;;;5114978;28;20055;-70
2023/12/28 05:45:09;;;;;;;40.70;39.10;;;;;;;;;;5115217;28;20179;-71
2023/12/28 05:47:36;;;;;;;49.15;47.28;;;;;;;;;;5113795;28;20097;-71
2023/12/28 05:50:03;;;;;;;40.80;39.28;;;;;;;;;;5114952;28;20044;-70
2023/12/28 05:52:30;;;;;;;45.08;43.40;;;;;;;;;;5114827;28;20747;-71
2023/12/28 05:54:57;;;;;;;44.17;42.47;;;;;;;;;;5114684;28;20108;-70
2023/12/28 05:57:25;;;;;;;42.05;39.97;;;;;;;;;;5114582;28;20558;-71
2023/12/28 05:59:51;;;;;;;44.15;42.15;;;;;;;;;;5114854;28;20509;-71
2023/12/28 06:02:18;;;;;;;51.10;48.78;;;;;;;;;;5114982;28;20117;-71
2023/12/28 06:04:44;;;;;;;46.17;44.53;;;;;;;;;;5112125;27;20117;-70
2023/12/28 06:07:11;;;;;;;44.95;43.15;;;;;;;;;;5114531;28;20052;-71
2023/12/28 06:09:38;;;;;;;48.17;46.45;;;;;;;;;;5114117;28;20043;-70
2023/12/28 06:12:05;;;;;;;55.20;53.05;;;;;;;;;;5114158;28;20091;-71
2023/12/28 06:14:32;;;;;;;51.50;49.50;;;;;;;;;;5111649;28;20088;-70
2023/12/28 06:16:58;;;;;;;43.00;40.22;;;;;;;;;;5113266;28;20113;-70
2023/12/28 06:19:25;;;;;;;58.08;55.83;;;;;;;;;;5113782;28;20047;-71
2023/12/28 06:21:51;;;;;;;55.80;53.50;;;;;;;;;;5113335;28;20051;-70
2023/12/28 06:24:18;;;;;;;66.93;63.10;;;;;;;;;;5112934;28;20749;-70
2023/12/28 06:26:45;;;;;;;58.88;56.78;;;;;;;;;;5113285;28;20080;-70
2023/12/28 06:29:12;;;;;;;59.30;57.03;;;;;;;;;;5113440;28;20048;-70
2023/12/28 06:31:39;;;;;;;55.65;53.55;;;;;;;;;;5113432;28;20048;-71
2023/12/28 06:34:05;;;;;;;56.38;54.22;;;;;;;;;;5113168;28;20105;-69
2023/12/28 06:36:32;;;;;;;60.60;58.05;;;;;;;;;;5112516;28;20036;-70
2023/12/28 06:38:58;;;;;;;52.35;50.30;;;;;;;;;;5110627;28;20036;-70
2023/12/28 06:41:25;;;;;;;56.38;54.28;;;;;;;;;;5112317;28;20047;-68
2023/12/28 06:43:53;;;;;;;52.28;49.90;;;;;;;;;;5112990;28;20072;-69
2023/12/28 06:46:20;;;;;;;33.20;31.80;;;;;;;;;;5110798;28;20456;-69
2023/12/28 06:48:46;;;;;;;57.75;55.08;;;;;;;;;;5111221;28;20058;-70
2023/12/28 06:51:17;;;;;;;67.28;64.72;;;;;;;;;;5113472;28;20112;-69
2023/12/28 06:53:43;;;;;;;66.53;63.67;;;;;;;;;;5112644;28;20506;-69
2023/12/28 06:56:10;;;;;;;53.38;51.42;;;;;;;;;;5110349;28;20127;-69
2023/12/28 06:58:36;;;;;;;66.25;63.50;;;;;;;;;;5112830;28;20105;-70
2023/12/28 07:01:05;;;;;;;67.20;64.30;;;;;;;;;;5112709;28;20096;-68
2023/12/28 07:03:32;;;;;;;68.00;65.40;;;;;;;;;;5110774;28;20552;-68
2023/12/28 07:05:59;;;;;;;66.15;63.53;;;;;;;;;;5109267;28;20047;-68
2023/12/28 07:08:25;;;;;;;58.30;55.42;;;;;;;;;;5103487;27;20105;-69
2023/12/28 07:10:52;;;;;;;69.68;66.45;;;;;;;;;;5112285;28;20055;-68
2023/12/28 07:13:18;;;;;;;68.63;66.03;;;;;;;;;;5106796;28;20039;-68
2023/12/28 07:15:45;;;;;;;62.35;59.97;;;;;;;;;;5112085;28;20105;-69
2023/12/28 07:18:13;;;;;;;60.25;57.58;;;;;;;;;;5112276;27;20047;-67
2023/12/28 07:20:39;;;;;;;63.53;61.22;;;;;;;;;;5108114;28;20131;-72
2023/12/28 07:23:06;;;;;;;70.25;66.93;;;;;;;;;;5104129;27;20486;-70
2023/12/28 07:25:33;;;;;;;72.88;69.38;;;;;;;;;;5106830;28;20114;-73
2023/12/28 07:27:59;;;;;;;71.75;68.90;;;;;;;;;;5108758;28;20104;-73
2023/12/28 07:30:26;;;;;;;64.00;61.40;;;;;;;;;;5112335;28;20436;-72
2023/12/28 07:32:52;;;;;;;68.68;66.05;;;;;;;;;;5112121;28;20100;-74
2023/12/28 07:35:20;;;;;;;65.32;62.63;;;;;;;;;;5110377;28;20051;-74
2023/12/28 07:37:49;;;;;;;74.30;71.65;;;;;;;;;;5100290;27;20044;-74
2023/12/28 07:40:16;;;;;;;68.30;65.82;;;;;;;;;;5096767;27;20043;-73
2023/12/28 07:42:42;;;;;;;70.78;68.10;;;;;;;;;;5107356;28;20481;-72
2023/12/28 07:45:09;;;;;;;43.33;41.40;;;;;;;;;;5113393;27;20443;-73
2023/12/28 07:47:36;;;;;;;58.42;55.97;;;;;;;;;;5110117;27;20043;-72
2023/12/28 07:50:02;;;;;;;71.20;68.28;;;;;;;;;;5112033;28;20096;-73
2023/12/28 07:52:30;;;;;;;64.60;61.85;;;;;;;;;;5111999;28;20113;-72
2023/12/28 07:54:58;;;;;;;73.07;69.97;;;;;;;;;;5106930;28;20051;-74
2023/12/28 07:57:24;;;;;;;43.22;41.15;;;;;;;;;;5111911;28;20399;-74
2023/12/28 07:59:51;;;;;;;72.75;69.88;;;;;;;;;;5104500;28;20052;-73
2023/12/28 08:02:17;;;;;;;73.05;70.30;;;;;;;;;;5111994;28;20047;-74
2023/12/28 08:04:44;;;;;;;75.85;73.32;;;;;;;;;;5111928;27;20132;-71
2023/12/28 08:07:10;;;;;;;65.88;63.22;;;;;;;;;;5111936;28;20543;-73
2023/12/28 08:09:38;;;;;;;71.28;68.72;;;;;;;;;;5122925;27;20092;-72
2023/12/28 08:12:05;;;;;;;69.28;66.35;;;;;;;;;;5106671;27;20048;-72
2023/12/28 08:14:32;;;;;;;77.97;75.03;;;;;;;;;;5111808;28;20047;-73
2023/12/28 08:16:58;;;;;;;75.68;72.78;;;;;;;;;;5111053;27;20047;-73
2023/12/28 08:19:24;;;;;;;57.42;55.25;;;;;;;;;;5111407;28;20081;-75
2023/12/28 08:21:51;;;;;;;75.32;72.20;;;;;;;;;;5112998;27;20505;-73
2023/12/28 08:24:17;;;;;;;72.82;70.18;;;;;;;;;;5111764;28;20047;-73
2023/12/28 08:26:45;;;;;;;82.95;79.95;;;;;;;;;;5112700;27;20097;-72
2023/12/28 08:29:12;;;;;;;73.15;69.95;;;;;;;;;;5111661;28;20123;-73
2023/12/28 08:31:38;;;;;;;74.68;71.40;;;;;;;;;;5111919;28;20082;-72
2023/12/28 08:34:05;;;;;;;70.75;67.80;;;;;;;;;;5112213;28;20108;-73
2023/12/28 08:36:31;;;;;;;80.13;76.07;;;;;;;;;;5111964;28;20067;-73
2023/12/28 08:38:58;;;;;;;84.78;81.43;;;;;;;;;;5106936;28;20055;-72
2023/12/28 08:41:24;;;;;;;82.63;79.47;;;;;;;;;;5111143;28;20051;-73
2023/12/28 08:43:53;;;;;;;80.57;77.60;;;;;;;;;;5107917;28;20075;-72
2023/12/28 08:46:20;;;;;;;80.03;77.25;;;;;;;;;;5101229;28;20043;-72
2023/12/28 08:48:46;;;;;;;84.78;81.40;;;;;;;;;;5106726;28;20048;-73
2023/12/28 08:51:14;;;;;;;79.47;76.22;;;;;;;;;;5103828;28;20073;-71
2023/12/28 08:53:41;;;;;;;78.15;75.40;;;;;;;;;;5116594;28;20584;-71
2023/12/28 08:56:13;;;;;;;78.03;74.90;;;;;;;;;;5112348;28;20059;-70
2023/12/28 08:58:40;;;;;;;87.38;84.05;;;;;;;;;;5115757;28;20059;-72
2023/12/28 09:01:08;;;;;;;83.75;80.45;;;;;;;;;;5111563;28;20109;-71
2023/12/28 09:03:34;;;;;;;82.82;78.60;;;;;;;;;;5104805;27;20043;-73
2023/12/28 09:06:01;;;;;;;92.40;88.47;;;;;;;;;;5124831;27;20056;-71
2023/12/28 09:08:27;;;;;;;78.80;75.22;;;;;;;;;;5109791;27;20093;-71
2023/12/28 09:10:54;;;;;;;87.10;83.18;;;;;;;;;;5115220;28;20100;-70
2023/12/28 09:13:20;;;;;;;96.78;92.95;;;;;;;;;;5117071;27;20097;-73
2023/12/28 09:15:47;;;;;;;86.78;83.35;;;;;;;;;;5126903;27;20139;-71
2023/12/28 09:18:15;;;;;;;80.35;76.93;;;;;;;;;;5115275;27;20047;-71
2023/12/28 09:20:41;;;;;;;88.07;84.30;;;;;;;;;;5096850;28;20052;-71
2023/12/28 09:23:09;;;;;;;89.40;85.20;;;;;;;;;;5098224;28;20101;-69
2023/12/28 09:25:36;;;;;;;90.93;86.68;;;;;;;;;;5102359;28;20127;-69
2023/12/28 09:28:02;;;;;;;91.72;87.85;;;;;;;;;;5114669;28;20051;-69
2023/12/28 09:30:29;;;;;;;95.07;91.13;;;;;;;;;;5115014;27;20055;-71
2023/12/28 09:32:55;;;;;;;105.28;100.35;;;;;;;;;;5110266;28;20574;-70
2023/12/28 09:35:24;;;;;;;65.28;61.58;;;;;;;;;;5114504;27;20478;-69
2023/12/28 09:37:51;;;;;;;108.82;104.18;;;;;;;;;;5094454;28;20044;-69
2023/12/28 09:40:17;;;;;;;98.03;94.30;;;;;;;;;;5116630;27;20047;-69
2023/12/28 09:42:49;;;;;;;91.07;87.05;;;;;;;;;;5112972;28;20047;-69
2023/12/28 09:45:15;;;;;;;106.38;101.32;;;;;;;;;;5126805;27;20051;-71
2023/12/28 09:47:43;;;;;;;117.18;112.18;;;;;;;;;;5114618;28;20044;-69
2023/12/28 09:50:10;;;;;;;105.40;100.60;;;;;;;;;;5126122;27;20047;-70
2023/12/28 09:52:38;;;;;;;92.30;88.43;;;;;;;;;;5117614;27;20040;-70
2023/12/28 09:55:05;;;;;;;107.45;102.88;;;;;;;;;;5121719;27;20047;-71
2023/12/28 09:57:32;;;;;;;64.18;59.97;;;;;;;;;;5114264;28;20160;-71
2023/12/28 09:59:58;;;;;;;97.35;92.50;;;;;;;;;;5114404;27;20048;-71
2023/12/28 10:02:25;;;;;;;105.95;101.43;;;;;;;;;;5112418;27;20171;-71
2023/12/28 10:04:51;;;;;;;100.68;95.40;;;;;;;;;;5105649;28;20047;-71
2023/12/28 10:07:18;;;;;;;108.20;103.57;;;;;;;;;;5113244;28;20100;-70
2023/12/28 10:09:45;;;;;;;114.55;109.53;;;;;;;;;;5114036;28;20124;-70
2023/12/28 10:12:12;;;;;;;110.13;104.90;;;;;;;;;;5114638;28;20048;-70
2023/12/28 10:14:39;;;;;;;102.65;97.88;;;;;;;;;;5114108;28;20043;-73
2023/12/28 10:17:06;;;;;;;117.40;112.68;;;;;;;;;;5114470;28;20055;-71
2023/12/28 10:19:32;;;;;;;110.72;106.13;;;;;;;;;;5114338;28;20039;-71
2023/12/28 10:21:59;;;;;;;104.40;99.25;;;;;;;;;;5108961;28;20108;-71
2023/12/28 10:24:26;;;;;;;114.65;109.88;;;;;;;;;;5108264;28;20086;-71
2023/12/28 10:26:55;;;;;;;127.70;121.95;;;;;;;;;;5113905;28;20081;-70
2023/12/28 10:29:21;;;;;;;114.97;109.65;;;;;;;;;;5114293;28;20047;-71
2023/12/28 10:31:50;;;;;;;116.03;110.68;;;;;;;;;;5114050;28;20055;-69
2023/12/28 10:34:16;;;;;;;126.50;120.70;;;;;;;;;;5112646;28;20048;-69
2023/12/28 10:36:43;;;;;;;115.78;109.70;;;;;;;;;;5109533;28;20460;-69
2023/12/28 10:39:10;;;;;;;106.32;101.07;;;;;;;;;;5107649;28;20503;-69
2023/12/28 10:41:39;;;;;;;117.70;112.78;;;;;;;;;;5113835;28;20048;-69
2023/12/28 10:44:07;;;;;;;122.50;117.65;;;;;;;;;;5113563;28;20117;-69
2023/12/28 10:46:35;;;;;;;117.25;111.65;;;;;;;;;;5113750;28;20097;-69
2023/12/28 10:49:06;;;;;;;109.80;105.45;;;;;;;;;;5113383;28;20112;-69
2023/12/28 10:51:34;;;;;;;108.22;103.55;;;;;;;;;;5113293;28;20089;-70
2023/12/28 10:54:07;;;;;;;121.25;116.72;;;;;;;;;;5113448;28;20039;-69
2023/12/28 10:56:36;;;;;;;112.38;107.78;;;;;;;;;;5113292;28;20128;-70
2023/12/28 10:59:10;;;;;;;94.05;90.05;;;;;;;;;;5112401;28;20479;-70
2023/12/28 11:01:38;;;;;;;109.47;105.60;;;;;;;;;;5113250;28;20048;-70
2023/12/28 11:04:09;;;;;;;110.40;106.75;;;;;;;;;;5112712;28;20100;-70
2023/12/28 11:06:36;;;;;;;110.93;107.00;;;;;;;;;;5112860;28;20042;-70
2023/12/28 11:09:05;;;;;;;107.82;103.18;;;;;;;;;;5113355;28;20147;-70
2023/12/28 11:11:32;;;;;;;109.82;106.03;;;;;;;;;;5112715;28;20043;-70
2023/12/28 11:14:00;;;;;;;108.75;104.18;;;;;;;;;;5111973;28;20576;-70
2023/12/28 11:16:27;;;;;;;124.07;119.65;;;;;;;;;;5112376;28;20097;-70
2023/12/28 11:18:55;;;;;;;108.43;104.60;;;;;;;;;;5112614;28;20048;-70
2023/12/28 11:21:23;;;;;;;126.00;121.50;;;;;;;;;;5106290;28;20497;-70
2023/12/28 11:23:49;;;;;;;130.18;125.25;;;;;;;;;;5105277;28;20862;-70
2023/12/28 11:26:16;;;;;;;127.38;123.15;;;;;;;;;;5092806;28;20056;-70
2023/12/28 11:28:43;;;;;;;119.93;115.82;;;;;;;;;;5112424;28;20051;-70
2023/12/28 11:31:11;;;;;;;124.32;119.65;;;;;;;;;;5112398;28;20574;-71
2023/12/28 11:33:44;;;;;;;110.55;106.45;;;;;;;;;;5112919;28;20592;-71
2023/12/28 11:36:12;;;;;;;127.82;123.47;;;;;;;;;;5112967;28;20046;-70
2023/12/28 11:38:39;;;;;;;82.28;79.15;;;;;;;;;;5112352;28;20401;-72
2023/12/28 11:41:06;;;;;;;139.52;134.82;;;;;;;;;;5107738;28;20117;-71
2023/12/28 11:43:37;;;;;;;96.68;92.75;;;;;;;;;;5112125;28;20466;-71
2023/12/28 11:46:05;;;;;;;120.60;116.20;;;;;;;;;;5112897;28;20123;-71
2023/12/28 11:48:32;;;;;;;135.45;130.60;;;;;;;;;;5111620;28;20500;-71
2023/12/28 11:50:59;;;;;;;138.00;133.50;;;;;;;;;;5111073;28;20048;-71
2023/12/28 11:53:28;;;;;;;148.80;143.95;;;;;;;;;;5112441;28;20047;-71
2023/12/28 11:56:00;;;;;;;139.75;134.73;;;;;;;;;;5111785;28;20055;-71
2023/12/28 11:58:27;;;;;;;138.95;133.65;;;;;;;;;;5104117;28;20141;-71
2023/12/28 12:00:53;;;;;;;152.50;147.15;;;;;;;;;;5102743;28;20109;-70
2023/12/28 12:03:20;;;;;;;165.95;159.85;;;;;;;;;;5107482;28;20051;-71
2023/12/28 12:05:47;;;;;;;142.02;136.70;;;;;;;;;;5109553;27;20126;-70
2023/12/28 12:08:14;;;;;;;151.65;145.88;;;;;;;;;;5115873;27;20100;-70
2023/12/28 12:10:42;;;;;;;156.52;151.07;;;;;;;;;;5103558;27;20104;-71
2023/12/28 12:13:08;;;;;;;156.18;150.45;;;;;;;;;;5112745;27;20051;-70
2023/12/28 12:15:35;;;;;;;147.30;142.23;;;;;;;;;;5119023;27;20039;-71
2023/12/28 12:18:02;;;;;;;151.30;145.98;;;;;;;;;;5119815;27;20052;-71
2023/12/28 12:20:29;;;;;;;164.85;158.85;;;;;;;;;;5110620;28;20043;-71
2023/12/28 12:22:58;;;;;;;165.32;159.75;;;;;;;;;;5109884;28;20130;-71
2023/12/28 12:25:24;;;;;;;172.98;167.13;;;;;;;;;;5110879;28;20097;-72
2023/12/28 12:27:52;;;;;;;166.10;160.07;;;;;;;;;;5110071;28;20043;-71
2023/12/28 12:30:20;;;;;;;172.75;166.68;;;;;;;;;;5110040;28;20059;-70
2023/12/28 12:32:46;;;;;;;158.75;153.40;;;;;;;;;;5110961;28;20127;-71
2023/12/28 12:35:14;;;;;;;157.50;151.70;;;;;;;;;;5111102;28;20473;-71
2023/12/28 12:37:41;;;;;;;168.75;162.07;;;;;;;;;;5107583;28;20451;-71
2023/12/28 12:40:08;;;;;;;167.65;161.93;;;;;;;;;;5114063;28;20518;-71
2023/12/28 12:42:35;;;;;;;169.02;163.18;;;;;;;;;;5115133;27;20086;-69
2023/12/28 12:45:04;;;;;;;173.27;167.32;;;;;;;;;;5112557;28;20093;-69
2023/12/28 12:47:33;;;;;;;172.43;166.95;;;;;;;;;;5112293;28;20044;-69
2023/12/28 12:49:59;;;;;;;165.25;159.30;;;;;;;;;;5110047;27;20533;-69
2023/12/28 12:52:26;;;;;;;169.98;164.00;;;;;;;;;;5108711;28;20493;-69
2023/12/28 12:54:56;;;;;;;171.48;165.18;;;;;;;;;;5109907;27;20044;-69
2023/12/28 12:57:23;;;;;;;165.80;159.50;;;;;;;;;;5112758;28;20134;-69
2023/12/28 12:59:51;;;;;;;163.75;157.65;;;;;;;;;;5111767;27;20125;-70
2023/12/28 13:02:19;;;;;;;182.27;176.05;;;;;;;;;;5114897;27;20086;-69
2023/12/28 13:04:45;;;;;;;184.20;177.60;;;;;;;;;;5117017;27;20103;-69
2023/12/28 13:07:11;;;;;;;185.07;178.32;;;;;;;;;;5113045;28;20051;-70
2023/12/28 13:09:38;;;;;;;188.63;181.77;;;;;;;;;;5118167;27;20043;-70
2023/12/28 13:12:05;;;;;;;196.43;189.77;;;;;;;;;;5122077;27;20074;-71
2023/12/28 13:14:31;;;;;;;209.13;202.55;;;;;;;;;;5114862;27;20542;-70
2023/12/28 13:16:58;;;;;;;214.95;207.48;;;;;;;;;;5114194;28;20047;-70
2023/12/28 13:19:26;;;;;;;196.75;190.20;;;;;;;;;;5114778;27;20097;-71
2023/12/28 13:21:52;;;;;;;183.55;176.48;;;;;;;;;;5115066;28;20100;-70
2023/12/28 13:24:18;;;;;;;213.25;205.57;;;;;;;;;;5119098;27;20047;-70
2023/12/28 13:26:45;;;;;;;195.68;188.70;;;;;;;;;;5119589;27;20056;-71
2023/12/28 13:29:11;;;;;;;195.82;188.90;;;;;;;;;;5115918;27;20048;-70
2023/12/28 13:31:39;;;;;;;191.80;185.07;;;;;;;;;;5112129;27;20044;-71
2023/12/28 13:34:05;;;;;;;137.73;132.43;;;;;;;;;;5107835;27;20321;-70
2023/12/28 13:36:34;;;;;;;216.75;209.68;;;;;;;;;;5112904;28;20096;-70
2023/12/28 13:39:00;;;;;;;202.43;195.30;;;;;;;;;;5117173;27;20517;-70
2023/12/28 13:41:27;;;;;;;219.23;211.95;;;;;;;;;;5116414;27;20055;-71
2023/12/28 13:44:00;;;;;;;216.82;209.50;;;;;;;;;;5114567;28;20051;-70
2023/12/28 13:46:26;;;;;;;201.32;194.20;;;;;;;;;;5113670;28;20048;-70
2023/12/28 13:48:53;;;;;;;220.68;213.57;;;;;;;;;;5114266;28;20100;-70
2023/12/28 13:51:19;;;;;;;201.02;194.27;;;;;;;;;;5114276;28;20047;-71
2023/12/28 13:53:47;;;;;;;143.00;137.52;;;;;;;;;;5114423;28;20447;-70
2023/12/28 13:56:14;;;;;;;224.25;216.63;;;;;;;;;;5112738;28;20077;-70
2023/12/28 13:58:40;;;;;;;155.48;149.82;;;;;;;;;;5112395;28;20465;-70
2023/12/28 14:01:07;;;;;;;210.25;203.75;;;;;;;;;;5114002;28;20048;-71
2023/12/28 14:03:34;;;;;;;208.30;201.70;;;;;;;;;;5114422;28;20104;-70
2023/12/28 14:06:00;;;;;;;205.55;198.88;;;;;;;;;;5114323;28;20105;-70
2023/12/28 14:08:27;;;;;;;205.27;198.68;;;;;;;;;;5114029;28;20135;-71